Time;durP1;ratioP1;P1;durP2;ratioP2;P2;SDS_P1;SDS_P2;PMS_P1;PMS_P2;Temp;Humidity;BMP_temperature;BMP_pressure;BME280_temperature;BME280_humidity;BME280_pressure;Samples;Min_cycle;Max_cycle;Signal;HPM_P1;HPM_P2
2023/05/04 00:03:51;;;;;;;17.00;15.70;;;8.30;99.90;;;;;;2616177;54;20822;-81
2023/05/04 00:09:39;;;;;;;16.13;15.03;;;8.30;99.90;;;;;;2616575;54;20371;-82
2023/05/04 00:15:28;;;;;;;21.10;16.33;;;8.10;99.90;;;;;;2614443;54;20173;-81
2023/05/04 00:21:15;;;;;;;15.83;14.53;;;7.90;99.90;;;;;;2613164;54;21048;-81
2023/05/04 00:27:03;;;;;;;16.37;15.10;;;7.40;99.90;;;;;;2612353;54;20162;-81
2023/05/04 00:32:51;;;;;;;17.40;15.83;;;7.40;99.90;;;;;;2613570;54;20133;-81
2023/05/04 00:45:32;;;;;;;15.53;14.43;;;6.90;99.90;;;;;;2613199;54;20391;-81
2023/05/04 00:51:23;;;;;;;15.43;14.23;;;6.80;99.90;;;;;;2613969;54;20416;-82
2023/05/04 00:57:12;;;;;;;14.30;13.23;;;6.60;99.90;;;;;;2613313;54;20399;-81
2023/05/04 01:03:00;;;;;;;16.50;15.03;;;6.60;99.90;;;;;;2620263;54;20518;-82
2023/05/04 01:15:58;;;;;;;16.50;15.03;;;6.20;99.90;;;;;;2617246;47;20407;-82
2023/05/04 01:19:11;;;;;;;17.00;15.50;;;6.20;99.90;;;;;;2617791;47;20925;-82
2023/05/04 01:24:58;;;;;;;16.50;14.47;;;6.30;99.90;;;;;;2618399;54;20395;-82
2023/05/04 01:30:49;;;;;;;19.50;14.33;;;6.10;99.90;;;;;;2618884;54;20158;-82
2023/05/04 01:36:38;;;;;;;16.40;14.70;;;6.20;99.90;;;;;;2618075;54;20378;-81
2023/05/04 01:45:47;;;;;;;17.07;15.37;;;6.30;99.90;;;;;;2614049;54;20383;-80
2023/05/04 01:51:34;;;;;;;21.23;15.73;;;6.70;99.90;;;;;;2614093;54;20139;-80
2023/05/04 01:57:22;;;;;;;16.07;14.57;;;6.80;99.90;;;;;;2615827;54;20242;-79
2023/05/04 02:03:10;;;;;;;14.77;13.50;;;6.70;99.90;;;;;;2612856;54;20525;-79
2023/05/04 02:08:58;;;;;;;15.63;13.77;;;6.60;99.90;;;;;;2616346;54;20202;-78
2023/05/04 02:18:08;;;;;;;19.20;14.60;;;6.40;99.90;;;;;;2613141;54;20418;-79
2023/05/04 02:23:56;;;;;;;17.00;15.40;;;6.40;99.90;;;;;;2613814;54;20158;-80
2023/05/04 02:29:44;;;;;;;18.87;14.77;;;6.30;99.90;;;;;;2619048;54;20222;-79
2023/05/04 02:35:31;;;;;;;16.60;15.20;;;6.40;99.90;;;;;;2616129;54;20138;-80
2023/05/04 02:41:19;;;;;;;15.90;14.40;;;6.10;99.90;;;;;;2614305;54;20169;-81
2023/05/04 02:47:08;;;;;;;16.30;14.77;;;6.00;99.90;;;;;;2611521;54;20368;-82
2023/05/04 02:52:56;;;;;;;15.73;13.43;;;5.80;99.90;;;;;;2613494;54;20366;-82
2023/05/04 02:58:44;;;;;;;16.30;13.10;;;5.70;99.90;;;;;;2613872;54;20158;-82
2023/05/04 03:04:32;;;;;;;15.80;14.30;;;5.60;99.90;;;;;;2613689;54;20431;-81
2023/05/04 03:10:20;;;;;;;18.07;14.17;;;5.60;99.90;;;;;;2616645;54;20150;-81
2023/05/04 03:13:30;;;;;;;16.57;15.00;;;5.60;99.90;;;;;;2615681;47;20403;-80
2023/05/04 03:15:57;;;;;;;18.27;16.27;;;5.60;99.90;;;;;;2613624;47;20513;-82
2023/05/04 03:21:45;;;;;;;14.50;13.00;;;5.70;99.90;;;;;;2613493;54;20402;-81
2023/05/04 03:27:35;;;;;;;17.00;14.97;;;5.70;99.90;;;;;;2613624;54;20406;-81
2023/05/04 03:33:23;;;;;;;17.70;15.50;;;5.70;99.90;;;;;;2614682;39;20746;-82
2023/05/04 03:39:11;;;;;;;21.13;16.07;;;5.50;99.90;;;;;;2616405;54;20239;-81
2023/05/04 03:44:59;;;;;;;17.50;15.37;;;5.50;99.90;;;;;;2615537;46;20398;-81
2023/05/04 03:50:47;;;;;;;20.13;15.50;;;5.50;99.90;;;;;;2614731;54;20830;-79
2023/05/04 03:56:34;;;;;;;17.57;15.70;;;5.40;99.90;;;;;;2616688;54;20153;-80
2023/05/04 04:02:22;;;;;;;17.33;15.60;;;5.30;99.90;;;;;;2612924;54;20202;-80
2023/05/04 04:08:10;;;;;;;16.60;14.73;;;5.20;99.90;;;;;;2613555;54;20150;-81
2023/05/04 04:17:57;;;;;;;17.50;15.60;;;5.20;99.90;;;;;;2614197;54;20379;-81
2023/05/04 04:23:45;;;;;;;18.77;16.80;;;5.40;99.90;;;;;;2617047;54;20398;-81
2023/05/04 04:29:34;;;;;;;25.80;20.63;;;5.40;99.90;;;;;;2616963;54;20139;-82
2023/05/04 04:35:22;;;;;;;23.33;17.83;;;5.50;99.90;;;;;;2617305;54;20391;-82
2023/05/04 04:41:10;;;;;;;19.23;16.90;;;5.60;99.90;;;;;;2619392;54;20411;-82
2023/05/04 04:46:58;;;;;;;18.77;15.70;;;5.70;99.90;;;;;;2618266;39;20322;-81
2023/05/04 04:52:46;;;;;;;16.40;14.70;;;5.90;99.90;;;;;;2614287;39;20512;-81
2023/05/04 04:58:35;;;;;;;20.43;15.20;;;6.10;99.90;;;;;;2615898;54;20139;-81
2023/05/04 05:04:24;;;;;;;19.80;16.17;;;6.50;99.90;;;;;;2617464;54;20378;-81
2023/05/04 05:10:12;;;;;;;18.20;15.67;;;6.70;99.90;;;;;;2620729;54;20383;-81
2023/05/04 05:13:30;;;;;;;19.17;17.13;;;6.80;99.90;;;;;;2622458;54;20415;-83
2023/05/04 05:15:57;;;;;;;18.00;16.50;;;6.90;99.90;;;;;;2614073;54;20193;-81
2023/05/04 05:21:46;;;;;;;18.80;16.90;;;7.30;99.90;;;;;;2613763;54;20415;-82
2023/05/04 05:27:34;;;;;;;21.40;17.20;;;7.50;99.90;;;;;;2610996;54;20408;-81
2023/05/04 05:33:22;;;;;;;22.47;16.10;;;8.20;99.90;;;;;;2615363;54;20358;-80
2023/05/04 05:39:11;;;;;;;17.23;15.40;;;9.60;99.90;;;;;;2616965;54;20395;-81
2023/05/04 05:45:00;;;;;;;20.23;18.20;;;9.90;99.90;;;;;;2616057;54;21031;-80
2023/05/04 05:50:49;;;;;;;19.57;17.53;;;10.50;99.90;;;;;;2616057;54;20418;-81
2023/05/04 05:56:36;;;;;;;23.83;17.70;;;10.80;99.90;;;;;;2615147;54;20439;-81
2023/05/04 06:02:25;;;;;;;19.77;17.53;;;11.60;95.70;;;;;;2609882;54;20178;-82
2023/05/04 06:08:14;;;;;;;19.50;17.70;;;11.60;92.90;;;;;;2613380;54;20395;-81
2023/05/04 06:17:58;;;;;;;21.07;18.93;;;12.10;77.10;;;;;;2615026;54;20969;-80
2023/05/04 06:23:46;;;;;;;19.83;18.33;;;11.70;81.00;;;;;;2613835;54;21008;-81
2023/05/04 06:29:35;;;;;;;20.67;19.17;;;11.50;93.00;;;;;;2616086;54;20422;-81
2023/05/04 06:35:23;;;;;;;20.00;18.10;;;11.90;85.90;;;;;;2613440;54;20387;-81
2023/05/04 06:41:11;;;;;;;20.50;18.33;;;12.20;76.70;;;;;;2613231;54;20166;-81
2023/05/04 06:46:59;;;;;;;18.63;16.83;;;12.50;73.00;;;;;;2620772;54;20468;-82
2023/05/04 06:52:47;;;;;;;19.97;18.17;;;12.50;64.70;;;;;;2620324;54;20122;-83
2023/05/04 06:58:36;;;;;;;21.67;19.40;;;13.00;54.70;;;;;;2619708;54;20134;-81
2023/05/04 07:04:24;;;;;;;21.53;19.90;;;14.20;46.80;;;;;;2620528;54;20422;-82
2023/05/04 07:10:13;;;;;;;21.30;19.40;;;14.70;38.50;;;;;;2622093;54;21032;-83
2023/05/04 07:13:31;;;;;;;21.50;19.70;;;15.10;34.50;;;;;;2620196;47;20970;-83
2023/05/04 07:15:57;;;;;;;22.07;20.17;;;15.40;28.30;;;;;;2618816;47;21106;-82
2023/05/04 07:21:46;;;;;;;19.40;17.43;;;15.80;23.70;;;;;;2618416;54;20239;-82
2023/05/04 07:27:34;;;;;;;20.80;19.40;;;15.80;14.00;;;;;;2621940;54;20372;-82
2023/05/04 07:33:22;;;;;;;23.03;21.00;;;16.70;8.60;;;;;;2623643;39;20607;-82
2023/05/04 07:39:10;;;;;;;19.47;18.17;;;17.00;1.00;;;;;;2623259;54;20123;-81
2023/05/04 07:44:58;;;;;;;20.90;18.67;;;17.70;1.00;;;;;;2612835;54;20143;-80
2023/05/04 07:50:46;;;;;;;19.03;17.90;;;17.70;1.00;;;;;;2613306;54;20139;-83
2023/05/04 07:56:34;;;;;;;19.57;18.17;;;18.30;1.00;;;;;;2615426;54;20388;-82
2023/05/04 08:02:22;;;;;;;19.00;17.03;;;18.20;1.00;;;;;;2616484;54;20154;-82
2023/05/04 08:08:10;;;;;;;19.00;17.20;;;18.40;1.00;;;;;;2611844;54;20403;-82
2023/05/04 08:18:01;;;;;;;17.23;15.73;;;19.90;1.00;;;;;;2612153;54;20547;-82
2023/05/04 08:23:48;;;;;;;16.30;15.20;;;19.30;1.00;;;;;;2616131;54;20438;-83
2023/05/04 08:29:36;;;;;;;16.37;15.30;;;19.60;1.00;;;;;;2621793;54;20154;-84
2023/05/04 08:35:26;;;;;;;18.00;16.90;;;20.50;1.00;;;;;;2621728;54;20154;-83
2023/05/04 08:41:15;;;;;;;18.60;17.33;;;20.60;1.00;;;;;;2619436;54;20419;-83
2023/05/04 08:47:03;;;;;;;18.47;17.37;;;20.80;1.00;;;;;;2618031;54;20431;-84
2023/05/04 08:52:52;;;;;;;17.00;15.90;;;21.20;1.00;;;;;;2617033;54;20158;-83
2023/05/04 09:05:26;;;;;;;17.93;16.53;;;22.00;1.00;;;;;;2615757;54;20374;-83
2023/05/04 09:11:13;;;;;;;17.43;16.00;;;20.80;1.00;;;;;;2617976;54;20379;-82
2023/05/04 09:20:27;;;;;;;16.47;15.47;;;21.90;1.00;;;;;;2617875;54;20516;-84
2023/05/04 09:38:50;;;;;;;15.87;14.90;;;22.60;1.00;;;;;;2614762;54;20403;-83
2023/05/04 09:44:38;;;;;;;16.20;15.30;;;23.40;1.00;;;;;;2620127;46;21540;-84
2023/05/04 09:50:26;;;;;;;17.00;16.10;;;22.90;1.00;;;;;;2617035;54;20178;-83
2023/05/04 09:56:19;;;;;;;17.20;15.53;;;23.80;1.00;;;;;;2615208;54;20487;-81
2023/05/04 10:02:08;;;;;;;16.67;15.57;;;22.90;1.00;;;;;;2617968;54;20391;-81
2023/05/04 10:07:59;;;;;;;16.57;15.67;;;23.00;1.00;;;;;;2615498;54;20402;-82
2023/05/04 10:13:48;;;;;;;17.57;16.43;;;23.80;1.00;;;;;;2615356;46;20934;-82
2023/05/04 10:29:49;;;;;;;16.37;15.47;;;23.30;1.00;;;;;;2613273;54;20541;-83
2023/05/04 10:42:13;;;;;;;16.40;15.20;;;23.80;1.00;;;;;;2613595;54;20521;-82
2023/05/04 10:48:01;;;;;;;16.80;15.70;;;23.70;1.00;;;;;;2613490;54;20130;-83
2023/05/04 10:53:51;;;;;;;16.90;16.10;;;23.40;1.00;;;;;;2612630;31;20684;-82
2023/05/04 10:59:40;;;;;;;15.50;14.80;;;24.40;1.00;;;;;;2612724;54;20403;-82
2023/05/04 11:12:06;;;;;;;16.67;15.67;;;24.10;1.00;;;;;;2619727;54;20499;-85
2023/05/04 11:17:54;;;;;;;15.10;14.10;;;24.80;1.00;;;;;;2617027;54;20411;-83
2023/05/04 11:23:42;;;;;;;14.53;13.80;;;23.80;1.00;;;;;;2612672;39;20402;-82
2023/05/04 11:27:07;;;;;;;15.30;14.17;;;23.70;1.00;;;;;;2609725;54;20396;-83
2023/05/04 11:32:56;;;;;;;15.70;14.40;;;23.70;1.00;;;;;;2617532;54;20495;-83
2023/05/04 11:38:44;;;;;;;15.07;14.00;;;24.80;1.00;;;;;;2617827;39;20851;-84
2023/05/04 11:44:33;;;;;;;15.17;14.37;;;25.80;1.00;;;;;;2616317;54;20394;-84
2023/05/04 11:50:21;;;;;;;14.97;14.37;;;26.20;1.00;;;;;;2618502;54;20411;-83
2023/05/04 11:56:09;;;;;;;15.17;14.47;;;25.10;1.00;;;;;;2616946;54;20423;-85
2023/05/04 12:01:57;;;;;;;15.23;14.37;;;24.70;1.00;;;;;;2622821;39;20492;-85
2023/05/04 12:07:45;;;;;;;16.03;15.07;;;25.80;1.00;;;;;;2619151;54;20130;-83
2023/05/04 12:13:33;;;;;;;15.13;14.43;;;25.70;1.00;;;;;;2617919;54;20158;-84
2023/05/04 12:19:21;;;;;;;15.40;14.50;;;26.40;1.00;;;;;;2613382;54;20158;-83
2023/05/04 12:22:34;;;;;;;14.70;14.00;;;26.40;1.00;;;;;;2611850;54;21138;-84
2023/05/04 12:25:00;;;;;;;15.30;14.60;;;25.80;1.00;;;;;;2613385;47;20175;-83
2023/05/04 12:30:48;;;;;;;15.70;14.90;;;25.60;1.00;;;;;;2613968;54;20133;-84
2023/05/04 12:36:36;;;;;;;14.93;14.20;;;26.20;1.00;;;;;;2613900;54;20450;-84
2023/05/04 12:42:24;;;;;;;16.57;15.77;;;26.50;1.00;;;;;;2615559;54;20299;-84
2023/05/04 12:48:13;;;;;;;16.47;15.37;;;26.20;1.00;;;;;;2615087;54;20157;-84
2023/05/04 12:54:03;;;;;;;15.53;14.73;;;25.80;1.00;;;;;;2615454;54;20383;-85
2023/05/04 12:59:51;;;;;;;15.50;14.67;;;26.00;1.00;;;;;;2615075;54;20411;-85
2023/05/04 13:05:39;;;;;;;15.17;14.47;;;26.50;1.00;;;;;;2616672;54;20166;-84
2023/05/04 13:11:27;;;;;;;16.10;15.40;;;25.80;1.00;;;;;;2617404;54;20130;-84
2023/05/04 13:17:17;;;;;;;15.87;14.83;;;26.20;1.00;;;;;;2622065;54;20411;-83
2023/05/04 13:27:08;;;;;;;15.83;15.03;;;26.90;1.00;;;;;;2620914;54;20391;-84
2023/05/04 13:32:57;;;;;;;15.47;14.50;;;27.40;1.00;;;;;;2620063;54;20403;-84
2023/05/04 13:38:45;;;;;;;15.03;14.30;;;26.60;1.00;;;;;;2618925;54;20475;-83
2023/05/04 13:42:06;;;;;;;16.53;15.63;;;27.60;1.00;;;;;;2620115;46;20447;-82
2023/05/04 13:44:33;;;;;;;17.40;16.40;;;26.60;1.00;;;;;;2620093;54;20127;-84
2023/05/04 13:50:21;;;;;;;15.10;14.30;;;26.30;1.00;;;;;;2620649;54;20430;-83
2023/05/04 13:56:09;;;;;;;14.40;13.60;;;27.50;1.00;;;;;;2620692;54;20126;-83
2023/05/04 14:01:58;;;;;;;13.93;13.40;;;26.70;1.00;;;;;;2613528;54;20371;-84
2023/05/04 14:07:45;;;;;;;14.80;14.00;;;26.70;1.00;;;;;;2611932;54;20147;-83
2023/05/04 14:13:33;;;;;;;14.33;13.57;;;27.20;1.00;;;;;;2612264;54;20138;-84
2023/05/04 14:19:21;;;;;;;13.53;13.03;;;26.40;1.00;;;;;;2613716;46;20166;-84
2023/05/04 14:22:35;;;;;;;13.23;12.67;;;27.10;1.00;;;;;;2611408;54;20432;-85
2023/05/04 14:25:01;;;;;;;14.20;13.50;;;26.90;1.00;;;;;;2612011;54;20177;-85
2023/05/04 14:30:49;;;;;;;14.47;13.70;;;27.40;1.00;;;;;;2619910;54;20138;-84
2023/05/04 14:36:37;;;;;;;14.40;13.70;;;26.90;1.00;;;;;;2618495;54;20465;-85
2023/05/04 14:42:25;;;;;;;14.13;13.30;;;26.70;1.00;;;;;;2619047;54;20151;-84
2023/05/04 14:48:21;;;;;;;15.43;14.63;;;26.40;1.00;;;;;;2620425;54;20155;-84
2023/05/04 14:52:03;;;;;;;15.80;15.00;;;26.70;1.00;;;;;;2617622;54;20400;-84
2023/05/04 14:54:28;;;;;;;16.30;15.40;;;26.70;1.00;;;;;;2616571;54;20503;-83
2023/05/04 15:00:18;;;;;;;16.63;15.73;;;26.20;1.00;;;;;;2614205;54;20829;-83
2023/05/04 15:09:27;;;;;;;15.93;15.13;;;26.80;1.00;;;;;;2617563;54;20395;-83
2023/05/04 15:15:15;;;;;;;15.50;14.70;;;27.50;1.00;;;;;;2614175;54;20411;-83
2023/05/04 15:21:03;;;;;;;16.93;15.83;;;26.40;1.00;;;;;;2612651;54;20154;-84
2023/05/04 15:26:51;;;;;;;15.30;14.53;;;26.40;1.00;;;;;;2614389;54;20410;-87
2023/05/04 15:32:38;;;;;;;15.53;14.63;;;26.10;1.00;;;;;;2613017;54;20125;-82
2023/05/04 15:38:27;;;;;;;15.37;14.27;;;26.40;1.00;;;;;;2615731;54;20133;-81
2023/05/04 15:44:15;;;;;;;15.70;14.80;;;25.70;1.00;;;;;;2617020;54;20451;-82
2023/05/04 15:50:03;;;;;;;16.37;15.50;;;25.20;1.00;;;;;;2616077;54;20153;-82
2023/05/04 15:55:51;;;;;;;16.93;15.83;;;25.30;1.00;;;;;;2616552;54;20430;-82
2023/05/04 16:01:39;;;;;;;17.40;15.87;;;24.90;1.00;;;;;;2618962;54;20165;-81
2023/05/04 16:07:27;;;;;;;16.43;15.37;;;25.00;1.00;;;;;;2618711;54;20166;-81
2023/05/04 16:13:17;;;;;;;16.13;14.93;;;25.00;1.00;;;;;;2618252;54;20134;-82
2023/05/04 16:19:05;;;;;;;15.67;14.93;;;25.20;1.00;;;;;;2618458;54;20382;-83
2023/05/04 16:28:19;;;;;;;15.50;14.60;;;25.20;1.00;;;;;;2619495;54;20457;-83
2023/05/04 16:34:06;;;;;;;16.80;16.00;;;24.60;1.00;;;;;;2621242;54;20392;-81
2023/05/04 16:39:55;;;;;;;16.63;15.33;;;24.10;1.00;;;;;;2619947;54;20653;-83
2023/05/04 16:45:44;;;;;;;16.93;15.93;;;23.70;1.00;;;;;;2620932;54;20396;-82
2023/05/04 16:51:32;;;;;;;17.10;16.20;;;24.10;1.00;;;;;;2621494;54;20395;-82
2023/05/04 16:57:19;;;;;;;16.67;15.70;;;24.00;1.00;;;;;;2620278;54;20198;-82
2023/05/04 17:03:07;;;;;;;16.00;15.20;;;23.70;1.00;;;;;;2619453;54;20123;-81
2023/05/04 17:08:55;;;;;;;17.07;15.87;;;23.40;1.00;;;;;;2620034;39;20527;-82
2023/05/04 17:14:43;;;;;;;17.90;16.80;;;23.30;1.00;;;;;;2616990;54;20139;-85
2023/05/04 17:20:30;;;;;;;16.97;16.03;;;22.90;1.00;;;;;;2617150;54;20247;-83
2023/05/04 17:23:34;;;;;;;16.40;15.50;;;22.90;1.00;;;;;;2615785;54;21004;-84
2023/05/04 17:29:39;;;;;;;17.60;16.50;;;22.60;1.00;;;;;;2617224;54;20447;-82
2023/05/04 17:35:28;;;;;;;16.17;15.23;;;22.40;1.00;;;;;;2616775;54;20414;-81
2023/05/04 17:41:16;;;;;;;17.03;16.03;;;22.10;1.00;;;;;;2616792;54;20411;-82
2023/05/04 17:47:04;;;;;;;18.97;17.63;;;21.90;1.00;;;;;;2619043;54;20464;-82
2023/05/04 17:52:55;;;;;;;20.23;18.90;;;21.70;1.00;;;;;;2618106;54;20119;-82
2023/05/04 17:58:43;;;;;;;18.53;17.47;;;21.50;1.00;;;;;;2618222;54;20419;-82
2023/05/04 18:04:31;;;;;;;20.70;19.30;;;21.40;1.00;;;;;;2617516;54;20138;-82
2023/05/04 18:10:19;;;;;;;18.43;17.43;;;21.40;1.00;;;;;;2616812;54;20383;-81
2023/05/04 18:16:07;;;;;;;18.77;17.77;;;21.30;1.00;;;;;;2617059;54;20150;-81
2023/05/04 18:21:54;;;;;;;21.53;19.93;;;21.00;1.00;;;;;;2618052;39;20613;-84
2023/05/04 18:25:06;;;;;;;20.80;19.33;;;20.90;1.00;;;;;;2616142;54;20424;-81
2023/05/04 18:27:33;;;;;;;20.37;18.90;;;20.90;1.00;;;;;;2616401;54;20147;-81
2023/05/04 18:33:23;;;;;;;18.10;17.00;;;20.60;1.00;;;;;;2615943;54;20396;-81
2023/05/04 18:39:12;;;;;;;21.33;19.50;;;20.40;1.00;;;;;;2618350;54;20422;-83
2023/05/04 18:45:00;;;;;;;17.43;16.43;;;20.20;1.00;;;;;;2618021;54;20392;-82
2023/05/04 18:50:55;;;;;;;19.50;17.67;;;20.20;1.00;;;;;;2618436;54;20399;-83
2023/05/04 18:56:45;;;;;;;17.57;16.73;;;20.10;1.00;;;;;;2616821;54;20403;-81
2023/05/04 19:02:33;;;;;;;16.40;15.60;;;20.10;1.00;;;;;;2616588;54;20419;-84
2023/05/04 19:08:21;;;;;;;17.93;16.73;;;20.00;1.00;;;;;;2618581;54;20395;-83
2023/05/04 19:14:09;;;;;;;17.40;16.20;;;19.70;1.00;;;;;;2617477;54;20123;-83
2023/05/04 19:19:57;;;;;;;17.73;16.60;;;19.30;1.00;;;;;;2617748;54;20126;-82
2023/05/04 19:29:38;;;;;;;21.63;20.30;;;18.70;1.00;;;;;;2618780;54;20415;-83
2023/05/04 19:35:26;;;;;;;19.13;18.03;;;18.40;1.00;;;;;;2619023;54;21012;-82
2023/05/04 19:41:14;;;;;;;19.13;17.73;;;18.00;1.00;;;;;;2618545;54;20127;-83
2023/05/04 19:47:02;;;;;;;19.30;18.00;;;18.00;1.00;;;;;;2618739;54;20123;-82
2023/05/04 19:52:50;;;;;;;19.93;18.17;;;18.00;1.00;;;;;;2617263;54;20130;-81
2023/05/04 19:58:38;;;;;;;19.60;18.20;;;17.80;1.00;;;;;;2617620;54;20439;-81
2023/05/04 20:04:26;;;;;;;18.37;17.27;;;17.70;1.00;;;;;;2615992;54;20683;-81
2023/05/04 20:10:14;;;;;;;18.20;17.10;;;17.50;1.00;;;;;;2618606;54;20548;-81
2023/05/04 20:16:03;;;;;;;17.37;16.57;;;17.30;1.00;;;;;;2617618;39;20857;-81
2023/05/04 20:21:51;;;;;;;17.03;16.13;;;17.10;1.00;;;;;;2617466;54;20426;-81
2023/05/04 20:25:06;;;;;;;18.53;17.43;;;17.30;1.00;;;;;;2615766;46;20435;-80
2023/05/04 20:27:32;;;;;;;19.13;17.30;;;17.20;1.00;;;;;;2616856;54;21042;-84
2023/05/04 20:33:20;;;;;;;18.67;17.47;;;17.70;1.00;;;;;;2617612;54;20170;-81
2023/05/04 20:39:07;;;;;;;17.87;16.87;;;17.60;1.00;;;;;;2617916;54;20122;-81
2023/05/04 20:44:55;;;;;;;18.57;17.60;;;17.20;1.00;;;;;;2617133;54;20179;-81
2023/05/04 20:50:43;;;;;;;17.60;16.50;;;17.00;1.00;;;;;;2617282;54;20155;-80
2023/05/04 20:56:31;;;;;;;17.90;17.00;;;17.20;1.00;;;;;;2617685;54;20127;-82
2023/05/04 21:02:20;;;;;;;20.63;19.53;;;17.00;1.00;;;;;;2616886;54;20432;-83
2023/05/04 21:08:08;;;;;;;21.97;20.37;;;17.50;1.00;;;;;;2618944;54;20398;-82
2023/05/04 21:13:56;;;;;;;19.63;18.40;;;17.70;1.00;;;;;;2620407;54;20130;-82
2023/05/04 21:19:44;;;;;;;18.07;16.87;;;17.90;1.00;;;;;;2620881;54;20138;-81
2023/05/04 21:29:41;;;;;;;17.93;16.83;;;17.20;1.00;;;;;;2620818;54;20400;-82
2023/05/04 21:35:29;;;;;;;17.53;16.57;;;17.50;1.00;;;;;;2619963;54;20388;-84
2023/05/04 21:41:17;;;;;;;18.70;17.60;;;17.70;1.00;;;;;;2619725;54;20912;-83
2023/05/04 21:47:05;;;;;;;18.40;17.10;;;17.80;1.00;;;;;;2618060;54;20682;-83
2023/05/04 21:52:54;;;;;;;18.60;17.57;;;17.50;1.00;;;;;;2615646;54;20375;-83
2023/05/04 21:58:42;;;;;;;18.33;17.33;;;17.30;1.00;;;;;;2617030;54;20182;-82
2023/05/04 22:04:29;;;;;;;18.50;17.43;;;17.10;1.00;;;;;;2615898;54;20138;-83
2023/05/04 22:10:17;;;;;;;17.50;16.60;;;16.90;1.00;;;;;;2616964;54;20130;-83
2023/05/04 22:16:08;;;;;;;18.27;17.17;;;16.60;1.00;;;;;;2615768;54;20157;-83
2023/05/04 22:21:56;;;;;;;18.27;17.27;;;16.60;1.00;;;;;;2615878;54;20415;-83
2023/05/04 22:25:07;;;;;;;17.67;16.80;;;16.90;1.00;;;;;;2614074;46;20440;-83
2023/05/04 22:27:33;;;;;;;18.73;17.77;;;17.00;1.00;;;;;;2616263;54;20181;-83
2023/05/04 22:33:20;;;;;;;18.30;17.10;;;17.40;1.00;;;;;;2616304;54;20150;-82
2023/05/04 22:39:09;;;;;;;18.30;17.00;;;17.60;1.00;;;;;;2615665;54;20142;-82
2023/05/04 22:44:57;;;;;;;18.03;17.13;;;17.70;1.00;;;;;;2617423;54;20411;-84
2023/05/04 22:50:47;;;;;;;18.77;17.50;;;17.90;1.00;;;;;;2616919;54;20151;-79
2023/05/04 22:56:35;;;;;;;18.27;17.27;;;17.90;1.00;;;;;;2620349;54;20475;-82
2023/05/04 23:02:22;;;;;;;17.90;16.93;;;18.00;1.00;;;;;;2618189;54;20158;-82
2023/05/04 23:08:10;;;;;;;19.30;18.30;;;18.10;1.00;;;;;;2618135;54;20130;-82
2023/05/04 23:13:58;;;;;;;19.33;18.33;;;18.10;1.00;;;;;;2620196;54;20154;-81
2023/05/04 23:19:47;;;;;;;18.30;17.23;;;18.20;1.00;;;;;;2619054;54;20134;-81
2023/05/04 23:36:00;;;;;;;17.27;16.27;;;18.20;1.00;;;;;;2613971;54;21277;-80
2023/05/04 23:41:48;;;;;;;18.03;17.13;;;18.20;1.00;;;;;;2615437;54;20669;-80
2023/05/04 23:47:35;;;;;;;16.93;15.87;;;18.10;1.00;;;;;;2614138;54;20139;-81
2023/05/04 23:53:23;;;;;;;18.10;17.00;;;17.90;1.00;;;;;;2614054;54;20145;-81
2023/05/04 23:59:10;;;;;;;17.70;16.80;;;17.90;1.00;;;;;;2613489;54;20413;-81
